Time;durP1;ratioP1;P1;durP2;ratioP2;P2;SDS_P1;SDS_P2;PMS_P1;PMS_P2;Temp;Humidity;BMP_temperature;BMP_pressure;BME280_temperature;BME280_humidity;BME280_pressure;Samples;Min_cycle;Max_cycle;Signal;HPM_P1;HPM_P2
2021/04/12 00:01:06;;;;;;;4.50;2.67;;;3.20;99.90;;;;;;5988022;23;20528;-83
2021/04/12 00:03:38;;;;;;;3.60;3.03;;;3.10;99.90;;;;;;6120999;23;20415;-83
2021/04/12 00:09:45;;;;;;;3.33;2.40;;;3.10;99.90;;;;;;5954645;23;20440;-83
2021/04/12 00:16:56;;;;;;;;;;;;;;;;;;;;;
2021/04/12 00:19:41;;;;;;;5.57;3.03;;;3.00;99.90;;;;;;6118361;23;20945;-83
2021/04/12 00:22:26;;;;;;;4.67;3.17;;;3.00;99.90;;;;;;6072227;23;20431;-83
2021/04/12 00:32:04;;;;;;;7.17;3.67;;;2.90;99.90;;;;;;6035491;23;20469;-83
2021/04/12 00:34:42;;;;;;;4.93;2.90;;;2.90;99.90;;;;;;6096508;23;20417;-83
2021/04/12 00:38:18;;;;;;;4.73;3.47;;;2.90;99.90;;;;;;6052111;23;20419;-83
2021/04/12 00:48:53;;;;;;;4.10;2.87;;;2.80;99.90;;;;;;5891208;24;20514;-84
2021/04/12 00:55:45;;;;;;;5.83;3.40;;;2.80;99.90;;;;;;5941763;24;20485;-84
2021/04/12 00:58:22;;;;;;;3.97;3.13;;;2.80;99.90;;;;;;5940508;23;20423;-84
2021/04/12 01:08:49;;;;;;;5.63;3.53;;;2.70;99.90;;;;;;5913280;23;20433;-84
2021/04/12 01:11:58;;;;;;;4.07;2.43;;;2.70;99.90;;;;;;6055970;23;20471;-84
2021/04/12 01:15:00;;;;;;;5.30;3.00;;;2.70;99.90;;;;;;6042332;23;20473;-84
2021/04/12 01:17:46;;;;;;;2.97;2.70;;;2.70;99.90;;;;;;6121717;23;20182;-84
2021/04/12 01:20:47;;;;;;;7.10;3.20;;;2.70;99.90;;;;;;6074044;23;20435;-84
2021/04/12 01:23:47;;;;;;;3.60;2.80;;;2.70;99.90;;;;;;6073050;23;20403;-84
2021/04/12 01:27:06;;;;;;;6.07;2.80;;;2.70;99.90;;;;;;6071766;23;20427;-84
2021/04/12 01:30:13;;;;;;;3.60;2.70;;;2.60;99.90;;;;;;6071627;23;20439;-84
2021/04/12 01:33:23;;;;;;;3.70;3.20;;;2.60;99.90;;;;;;6071566;23;20446;-84
2021/04/12 01:36:27;;;;;;;6.00;4.10;;;2.60;99.90;;;;;;6120377;23;20418;-84
2021/04/12 01:39:06;;;;;;;4.10;3.10;;;2.60;99.90;;;;;;6071600;23;20466;-84
2021/04/12 01:41:45;;;;;;;5.27;3.60;;;2.60;99.90;;;;;;6095914;23;20699;-84
2021/04/12 01:44:45;;;;;;;4.63;4.07;;;2.60;99.90;;;;;;6120484;23;20425;-84
2021/04/12 01:47:26;;;;;;;6.33;4.40;;;2.60;99.90;;;;;;6064378;23;20896;-84
2021/04/12 01:50:18;;;;;;;4.43;3.53;;;2.50;99.90;;;;;;6097329;23;20895;-85
2021/04/12 01:53:24;;;;;;;3.83;3.10;;;2.50;99.90;;;;;;6084439;23;20472;-84
2021/04/12 01:56:29;;;;;;;6.27;4.23;;;2.50;99.90;;;;;;6068029;23;20478;-84
2021/04/12 01:59:08;;;;;;;4.57;3.17;;;2.50;99.90;;;;;;6069109;23;20497;-84
2021/04/12 02:02:12;;;;;;;6.37;3.37;;;2.50;99.90;;;;;;6096978;23;20432;-84
2021/04/12 02:05:14;;;;;;;4.17;3.77;;;2.50;99.90;;;;;;6121537;23;20445;-84
2021/04/12 02:08:11;;;;;;;3.93;3.17;;;2.40;99.90;;;;;;6064719;23;20749;-84
2021/04/12 02:11:23;;;;;;;;;;;;;;;;;;;;;
2021/04/12 02:15:04;;;;;;;4.17;3.60;;;2.40;99.90;;;;;;6009182;23;20487;-85
2021/04/12 02:17:46;;;;;;;4.10;3.57;;;2.40;99.90;;;;;;6014900;23;20421;-85
2021/04/12 02:20:21;;;;;;;5.03;4.50;;;2.30;99.90;;;;;;6014435;23;20444;-85
2021/04/12 02:23:29;;;;;;;5.17;3.90;;;2.30;99.90;;;;;;6014472;23;20910;-85
2021/04/12 02:26:12;;;;;;;4.70;4.23;;;2.30;99.90;;;;;;5991724;23;20450;-85
2021/04/12 02:29:01;;;;;;;6.67;4.50;;;2.30;99.90;;;;;;6014455;23;20447;-85
2021/04/12 02:31:43;;;;;;;6.43;3.63;;;2.30;99.90;;;;;;5990867;23;20429;-85
2021/04/12 02:34:22;;;;;;;4.80;4.30;;;2.30;99.90;;;;;;6014696;23;20474;-85
2021/04/12 02:37:25;;;;;;;6.47;4.17;;;2.30;99.90;;;;;;5991138;23;20829;-84
2021/04/12 02:40:16;;;;;;;4.93;4.40;;;2.20;99.90;;;;;;6015107;23;20508;-84
2021/04/12 02:43:04;;;;;;;7.37;4.50;;;2.20;99.90;;;;;;6000698;23;20414;-84
2021/04/12 02:45:41;;;;;;;4.90;4.30;;;2.20;99.90;;;;;;6120420;23;20423;-84
2021/04/12 02:48:27;;;;;;;4.87;4.30;;;2.20;99.90;;;;;;6097844;23;20405;-84
2021/04/12 02:51:21;;;;;;;6.90;4.23;;;2.20;99.90;;;;;;6072288;23;20418;-84
2021/04/12 02:54:03;;;;;;;4.53;4.13;;;2.10;99.90;;;;;;6068253;23;20436;-84
2021/04/12 02:56:41;;;;;;;4.80;4.37;;;2.10;99.90;;;;;;6096689;23;20421;-84
2021/04/12 02:59:39;;;;;;;7.17;4.63;;;2.10;99.90;;;;;;6121019;23;20449;-84
2021/04/12 03:02:55;;;;;;;5.80;4.70;;;2.10;99.90;;;;;;6095649;23;20423;-84
2021/04/12 03:05:46;;;;;;;8.23;4.30;;;2.10;99.90;;;;;;6073035;23;20411;-84
2021/04/12 03:08:35;;;;;;;4.73;4.23;;;2.10;99.90;;;;;;6096736;23;20415;-84
2021/04/12 03:11:35;;;;;;;5.67;5.10;;;2.00;99.90;;;;;;6120929;23;20415;-84
2021/04/12 03:14:36;;;;;;;5.40;4.90;;;2.00;99.90;;;;;;6096907;23;20424;-84
2021/04/12 03:17:19;;;;;;;6.30;5.60;;;2.00;99.90;;;;;;6120764;23;20419;-84
2021/04/12 03:24:22;;;;;;;5.93;4.80;;;1.90;99.90;;;;;;6005307;23;20483;-84
2021/04/12 03:27:11;;;;;;;6.00;4.97;;;1.90;99.90;;;;;;6035789;23;20426;-84
2021/04/12 03:29:50;;;;;;;6.03;5.43;;;1.90;99.90;;;;;;6122978;23;20471;-84
2021/04/12 03:32:42;;;;;;;5.93;5.20;;;1.90;99.90;;;;;;6098457;23;20449;-84
2021/04/12 03:35:18;;;;;;;6.30;5.53;;;1.90;99.90;;;;;;6122797;23;20421;-84
2021/04/12 03:38:12;;;;;;;6.20;5.37;;;1.90;99.90;;;;;;6098738;23;20432;-84
2021/04/12 03:40:43;;;;;;;7.63;5.67;;;1.90;99.90;;;;;;6074132;23;20492;-84
2021/04/12 03:43:38;;;;;;;5.10;4.47;;;1.90;99.90;;;;;;6074233;23;20724;-84
2021/04/12 03:46:27;;;;;;;7.40;4.30;;;1.80;99.90;;;;;;6073840;23;20477;-84
2021/04/12 03:49:37;;;;;;;8.93;5.90;;;1.80;99.90;;;;;;6098068;23;20495;-84
2021/04/12 03:52:27;;;;;;;6.53;5.90;;;1.80;99.90;;;;;;6073663;23;20431;-84
2021/04/12 03:55:14;;;;;;;7.33;5.30;;;1.80;99.90;;;;;;6098094;23;20407;-84
2021/04/12 03:58:06;;;;;;;7.97;5.40;;;1.80;99.90;;;;;;6084882;23;20866;-84
2021/04/12 04:00:57;;;;;;;5.87;4.07;;;1.70;99.90;;;;;;6074447;23;20452;-85
2021/04/12 04:03:54;;;;;;;7.03;5.07;;;1.70;99.90;;;;;;6075719;23;20441;-85
2021/04/12 04:06:52;;;;;;;6.27;5.23;;;1.70;99.90;;;;;;6097630;23;20732;-85
2021/04/12 04:09:37;;;;;;;7.10;5.40;;;1.70;99.90;;;;;;6122693;23;20935;-84
2021/04/12 04:12:18;;;;;;;6.53;5.93;;;1.70;99.90;;;;;;6098056;23;20434;-84
2021/04/12 04:15:19;;;;;;;7.17;5.30;;;1.70;99.90;;;;;;6122449;23;20450;-84
2021/04/12 04:18:12;;;;;;;6.17;4.70;;;1.70;99.90;;;;;;6074096;23;20423;-84
2021/04/12 04:20:57;;;;;;;5.27;4.70;;;1.60;99.90;;;;;;6122375;23;20447;-84
2021/04/12 04:23:59;;;;;;;5.60;5.10;;;1.60;99.90;;;;;;6074760;23;20916;-84
2021/04/12 04:27:04;;;;;;;10.57;5.87;;;1.60;99.90;;;;;;6086106;23;20384;-84
2021/04/12 04:30:01;;;;;;;6.57;5.67;;;1.60;99.90;;;;;;6122682;23;20439;-84
2021/04/12 04:32:52;;;;;;;6.93;5.13;;;1.60;99.90;;;;;;6097817;23;20782;-84
2021/04/12 04:35:55;;;;;;;8.80;5.90;;;1.60;99.90;;;;;;6122186;23;20179;-84
2021/04/12 04:38:53;;;;;;;7.60;5.47;;;1.60;99.90;;;;;;6008666;23;20422;-84
2021/04/12 04:41:42;;;;;;;7.43;4.90;;;1.60;99.90;;;;;;6074533;23;20447;-84
2021/04/12 04:44:24;;;;;;;6.72;5.75;;;1.60;99.90;;;;;;6096276;23;20509;-84
2021/04/12 04:47:33;;;;;;;6.17;5.57;;;1.70;99.90;;;;;;6097752;23;20191;-84
2021/04/12 04:50:27;;;;;;;6.30;5.70;;;1.70;99.90;;;;;;6024190;23;20466;-84
2021/04/12 04:53:15;;;;;;;6.33;5.10;;;1.70;99.90;;;;;;6122732;23;20809;-84
2021/04/12 04:56:01;;;;;;;9.33;4.97;;;1.70;99.90;;;;;;6085073;23;20404;-85
2021/04/12 04:58:49;;;;;;;6.37;5.47;;;1.60;99.90;;;;;;6097429;23;20407;-84
2021/04/12 05:01:38;;;;;;;5.67;4.77;;;1.60;99.90;;;;;;6098207;23;20435;-84
2021/04/12 05:04:31;;;;;;;10.50;4.90;;;1.60;99.90;;;;;;6122319;23;20494;-84
2021/04/12 05:07:23;;;;;;;6.30;5.10;;;1.60;99.90;;;;;;6073049;23;20446;-84
2021/04/12 05:10:10;;;;;;;6.10;4.73;;;1.60;99.90;;;;;;6073459;23;20446;-85
2021/04/12 05:12:48;;;;;;;5.90;5.30;;;1.60;99.90;;;;;;6097310;23;20445;-84
2021/04/12 05:15:55;;;;;;;6.63;5.83;;;1.60;99.90;;;;;;6084850;23;20394;-84
2021/04/12 05:18:37;;;;;;;6.33;5.27;;;1.60;99.90;;;;;;6121579;23;20421;-84
2021/04/12 05:21:43;;;;;;;6.83;5.10;;;1.60;99.90;;;;;;6073815;23;20915;-84
2021/04/12 05:24:48;;;;;;;6.90;6.27;;;1.70;99.90;;;;;;6083762;23;20435;-84
2021/04/12 05:27:37;;;;;;;10.80;7.57;;;1.60;99.90;;;;;;6074019;23;20415;-84
2021/04/12 05:30:52;;;;;;;10.07;5.70;;;1.70;99.90;;;;;;6073713;23;20445;-84
2021/04/12 05:33:49;;;;;;;6.57;5.80;;;1.70;99.90;;;;;;5957985;24;20599;-84
2021/04/12 05:36:36;;;;;;;5.50;4.63;;;1.70;99.90;;;;;;6010856;23;20761;-84
2021/04/12 05:39:31;;;;;;;5.93;5.30;;;1.70;99.90;;;;;;6110707;23;20449;-84
2021/04/12 05:42:18;;;;;;;5.87;5.10;;;1.80;99.90;;;;;;6085470;23;20389;-84
2021/04/12 05:45:18;;;;;;;5.87;4.53;;;1.80;99.90;;;;;;6121952;23;20438;-85
2021/04/12 05:48:32;;;;;;;6.30;5.70;;;1.80;99.90;;;;;;6073346;23;20421;-85
2021/04/12 05:51:27;;;;;;;9.33;4.70;;;1.90;99.90;;;;;;6039228;23;20429;-84
2021/04/12 05:54:29;;;;;;;5.43;4.90;;;1.90;99.90;;;;;;6072772;23;20530;-84
2021/04/12 05:57:25;;;;;;;5.43;4.60;;;1.90;99.90;;;;;;6121981;23;20448;-84
2021/04/12 06:00:17;;;;;;;5.37;4.70;;;2.00;99.90;;;;;;6054793;23;20445;-84
2021/04/12 06:03:08;;;;;;;6.20;5.27;;;2.00;99.90;;;;;;6084615;23;20383;-84
2021/04/12 06:06:18;;;;;;;6.50;5.03;;;2.00;99.90;;;;;;6097592;23;20451;-84
2021/04/12 06:09:24;;;;;;;6.03;5.43;;;2.10;99.90;;;;;;6097364;23;20819;-84
2021/04/12 06:12:20;;;;;;;5.50;4.77;;;2.10;99.90;;;;;;6070737;23;20420;-83
2021/04/12 06:15:18;;;;;;;6.47;5.20;;;2.20;99.90;;;;;;6119416;23;20901;-82
2021/04/12 06:18:15;;;;;;;6.53;5.93;;;2.40;99.90;;;;;;6071336;23;20438;-82
2021/04/12 06:21:14;;;;;;;5.10;4.23;;;2.50;99.90;;;;;;6070640;23;20423;-83
2021/04/12 06:24:25;;;;;;;7.10;4.90;;;2.60;99.90;;;;;;6032948;23;20433;-83
2021/04/12 06:27:18;;;;;;;5.77;5.17;;;2.60;99.90;;;;;;6058261;23;20419;-83
2021/04/12 06:30:17;;;;;;;5.33;4.83;;;2.70;99.90;;;;;;6071027;23;20496;-83
2021/04/12 06:33:04;;;;;;;6.63;5.00;;;2.80;99.90;;;;;;6094999;23;20444;-83
2021/04/12 06:36:08;;;;;;;7.00;5.47;;;2.90;99.90;;;;;;6096451;23;20648;-83
2021/04/12 06:39:11;;;;;;;5.93;5.20;;;3.00;99.90;;;;;;6094433;23;20424;-83
2021/04/12 06:42:24;;;;;;;8.03;4.60;;;3.10;99.90;;;;;;6070658;23;20453;-83
2021/04/12 06:45:39;;;;;;;7.70;5.07;;;3.20;99.90;;;;;;6070701;23;20423;-83
2021/04/12 06:48:36;;;;;;;4.67;4.07;;;3.40;99.90;;;;;;6094408;23;20970;-83
2021/04/12 06:52:04;;;;;;;7.50;4.90;;;3.70;99.90;;;;;;6094797;23;20752;-83
2021/04/12 06:55:02;;;;;;;4.87;3.83;;;4.00;99.90;;;;;;6095794;23;20407;-83
2021/04/12 06:58:19;;;;;;;4.13;3.53;;;4.20;99.90;;;;;;6070391;23;20977;-83
2021/04/12 07:01:20;;;;;;;4.10;3.63;;;4.50;99.90;;;;;;6016960;23;20435;-83
2021/04/12 07:04:12;;;;;;;7.80;3.67;;;4.80;99.90;;;;;;6017157;23;20942;-83
2021/04/12 07:07:09;;;;;;;4.83;3.80;;;5.00;99.90;;;;;;6068385;23;20475;-83
2021/04/12 07:10:00;;;;;;;6.00;4.20;;;5.10;99.90;;;;;;6118700;23;20443;-82
2021/04/12 07:13:08;;;;;;;6.07;3.77;;;5.30;99.90;;;;;;6068626;23;20438;-82
2021/04/12 07:16:26;;;;;;;6.63;3.33;;;5.40;99.90;;;;;;6094135;23;20752;-82
2021/04/12 07:19:42;;;;;;;5.87;2.90;;;5.60;99.90;;;;;;6094261;23;20943;-83
2021/04/12 07:22:36;;;;;;;6.67;3.60;;;5.90;99.90;;;;;;6039825;23;20435;-82
2021/04/12 07:25:49;;;;;;;4.17;3.50;;;6.10;99.90;;;;;;6016494;23;20432;-82
2021/04/12 07:29:07;;;;;;;11.73;4.27;;;6.30;99.90;;;;;;6067519;23;20449;-82
2021/04/12 07:32:19;;;;;;;3.60;2.60;;;6.50;99.90;;;;;;6094379;23;20431;-83
2021/04/12 07:35:20;;;;;;;4.00;2.40;;;6.80;99.90;;;;;;6069902;23;20510;-83
2021/04/12 07:38:11;;;;;;;2.50;2.10;;;7.00;99.90;;;;;;6094891;23;20438;-83
2021/04/12 07:41:22;;;;;;;4.27;2.70;;;7.20;99.90;;;;;;6094798;23;20443;-83
2021/04/12 07:44:20;;;;;;;3.70;2.50;;;7.40;99.90;;;;;;6094389;23;20510;-82
2021/04/12 07:47:34;;;;;;;4.40;2.43;;;7.50;99.90;;;;;;6094373;23;20901;-82
2021/04/12 07:50:42;;;;;;;4.93;2.67;;;7.60;99.90;;;;;;6070027;23;20536;-83
2021/04/12 07:53:50;;;;;;;3.63;2.77;;;7.50;99.90;;;;;;6069629;23;20501;-83
2021/04/12 07:57:01;;;;;;;5.55;2.60;;;7.60;99.90;;;;;;6117331;23;20441;-83
2021/04/12 08:00:27;;;;;;;4.40;2.47;;;8.00;99.90;;;;;;6028151;23;20198;-83
2021/04/12 08:03:30;;;;;;;3.97;1.80;;;8.20;99.90;;;;;;6118403;23;20418;-83
2021/04/12 08:06:43;;;;;;;4.75;2.42;;;8.40;99.90;;;;;;6093023;23;20496;-83
2021/04/12 08:09:41;;;;;;;3.27;2.00;;;8.60;99.90;;;;;;6093487;23;20195;-83
2021/04/12 08:13:00;;;;;;;2.70;1.70;;;8.70;99.90;;;;;;6118449;23;20493;-83
2021/04/12 08:16:15;;;;;;;3.30;1.93;;;8.90;99.90;;;;;;6071431;23;20423;-83
2021/04/12 08:19:04;;;;;;;3.67;1.90;;;8.90;99.90;;;;;;6070992;23;20966;-83
2021/04/12 08:22:29;;;;;;;3.17;1.70;;;8.90;99.90;;;;;;6095275;23;20448;-83
2021/04/12 08:25:24;;;;;;;4.60;1.90;;;9.00;99.90;;;;;;6071494;23;20438;-83
2021/04/12 08:28:35;;;;;;;3.60;1.60;;;9.10;99.90;;;;;;6094710;23;20425;-83
2021/04/12 08:31:40;;;;;;;4.87;2.33;;;9.30;99.90;;;;;;6071439;23;20918;-83
2021/04/12 08:35:00;;;;;;;6.97;2.20;;;9.50;99.90;;;;;;6071005;23;20545;-83
2021/04/12 08:37:58;;;;;;;2.67;2.10;;;9.60;99.90;;;;;;6094899;23;20424;-83
2021/04/12 08:41:13;;;;;;;4.03;1.67;;;9.60;99.90;;;;;;6119343;23;20466;-83
2021/04/12 08:44:08;;;;;;;2.67;1.87;;;9.60;99.90;;;;;;6013324;23;20466;-83
2021/04/12 08:47:02;;;;;;;3.83;1.40;;;9.40;99.90;;;;;;6013291;23;20470;-83
2021/04/12 08:50:08;;;;;;;2.83;1.10;;;9.40;99.90;;;;;;6080271;23;20818;-83
2021/04/12 08:53:05;;;;;;;1.77;0.90;;;9.50;99.90;;;;;;6118986;23;20442;-83
2021/04/12 08:55:50;;;;;;;2.13;1.10;;;9.50;99.90;;;;;;6071232;23;20477;-82
2021/04/12 08:58:58;;;;;;;2.00;1.23;;;9.60;99.90;;;;;;6094819;23;20412;-82
2021/04/12 09:02:02;;;;;;;1.70;0.90;;;9.70;99.90;;;;;;6052399;23;20428;-82
2021/04/12 09:04:58;;;;;;;1.30;0.87;;;9.90;99.90;;;;;;6092338;23;20414;-82
2021/04/12 09:08:14;;;;;;;2.37;1.10;;;10.10;99.90;;;;;;6120035;23;20476;-82
2021/04/12 09:11:05;;;;;;;2.60;1.07;;;10.10;99.90;;;;;;6051648;23;20438;-83
2021/04/12 09:14:03;;;;;;;3.27;1.13;;;10.10;99.90;;;;;;6017993;23;20441;-83
2021/04/12 09:16:46;;;;;;;1.53;1.23;;;10.00;99.90;;;;;;6086974;23;20422;-83
2021/04/12 09:19:36;;;;;;;2.53;1.40;;;9.80;99.90;;;;;;6075674;23;20501;-84
2021/04/12 09:22:48;;;;;;;2.30;1.00;;;9.50;99.90;;;;;;6096843;23;20436;-83
2021/04/12 09:25:54;;;;;;;3.70;1.13;;;9.40;99.90;;;;;;6095063;23;20782;-83
2021/04/12 09:28:53;;;;;;;1.33;0.97;;;9.40;99.90;;;;;;6070186;23;21006;-83
2021/04/12 09:32:12;;;;;;;4.80;1.70;;;9.50;99.90;;;;;;6097367;23;20430;-85
2021/04/12 09:35:21;;;;;;;3.40;0.97;;;9.50;99.90;;;;;;6020863;23;20436;-86
2021/04/12 09:38:24;;;;;;;2.03;1.20;;;9.40;99.90;;;;;;6020984;23;20953;-86
2021/04/12 09:41:32;;;;;;;1.47;1.27;;;9.60;99.90;;;;;;6120914;23;20936;-86
2021/04/12 09:44:52;;;;;;;2.43;0.80;;;9.70;99.90;;;;;;6073518;23;20424;-85
2021/04/12 09:47:48;;;;;;;2.13;1.00;;;9.80;99.90;;;;;;6073395;23;20432;-85
2021/04/12 09:51:09;;;;;;;3.47;1.00;;;10.00;99.90;;;;;;6073897;23;20783;-86
2021/04/12 09:54:28;;;;;;;1.67;1.03;;;10.00;99.90;;;;;;6123969;23;20509;-86
2021/04/12 09:57:43;;;;;;;1.83;0.70;;;10.00;99.90;;;;;;6074016;23;20412;-86
2021/04/12 10:00:36;;;;;;;2.60;1.10;;;10.00;99.90;;;;;;6096088;23;20477;-85
2021/04/12 10:03:49;;;;;;;2.13;1.10;;;9.90;97.70;;;;;;6097735;23;20182;-86
2021/04/12 10:06:57;;;;;;;2.50;1.30;;;9.70;97.90;;;;;;6098171;23;20422;-86
2021/04/12 10:09:45;;;;;;;2.22;1.10;;;9.70;98.60;;;;;;6121290;23;20426;-86
2021/04/12 10:12:48;;;;;;;3.33;0.90;;;9.90;96.90;;;;;;6096734;23;20189;-85
2021/04/12 10:15:31;;;;;;;2.53;0.70;;;10.00;96.50;;;;;;6061187;23;20785;-86
2021/04/12 10:18:13;;;;;;;1.77;0.80;;;10.00;96.30;;;;;;6097877;23;20415;-86
2021/04/12 10:20:44;;;;;;;2.20;1.30;;;10.10;96.40;;;;;;6122224;23;20971;-85
2021/04/12 10:23:19;;;;;;;1.90;0.93;;;10.20;96.50;;;;;;6097932;23;20419;-85
2021/04/12 10:25:58;;;;;;;1.63;0.90;;;10.30;96.50;;;;;;6073718;23;20428;-85
2021/04/12 10:28:29;;;;;;;1.47;0.90;;;10.30;96.30;;;;;;6073659;23;20508;-85
2021/04/12 10:31:06;;;;;;;2.17;0.90;;;10.30;95.90;;;;;;6085307;23;20442;-85
2021/04/12 10:33:42;;;;;;;1.20;0.77;;;10.20;95.80;;;;;;6122528;23;20438;-85
2021/04/12 10:36:21;;;;;;;2.23;0.97;;;10.20;95.50;;;;;;6072827;23;20490;-85
2021/04/12 10:39:00;;;;;;;1.57;0.70;;;10.20;95.20;;;;;;6096802;23;20784;-85
2021/04/12 10:41:33;;;;;;;1.37;0.80;;;10.20;95.30;;;;;;6096691;23;20445;-85
2021/04/12 10:51:01;;;;;;;2.70;1.03;;;10.30;94.60;;;;;;6018324;23;20454;-84
2021/04/12 10:53:53;;;;;;;2.50;1.07;;;10.40;94.70;;;;;;6095106;23;20451;-85
2021/04/12 10:56:30;;;;;;;1.90;0.70;;;10.40;94.50;;;;;;6120623;23;20430;-83
2021/04/12 10:59:40;;;;;;;3.27;1.30;;;10.40;94.40;;;;;;6095921;23;20450;-85
2021/04/12 11:02:20;;;;;;;2.30;1.50;;;10.50;94.30;;;;;;6071111;23;20506;-85
2021/04/12 11:05:51;;;;;;;;;;;;;;;;;;;;;
2021/04/12 11:12:16;;;;;;;1.87;0.90;;;10.80;93.20;;;;;;6048178;23;20416;-85
2021/04/12 11:15:20;;;;;;;1.33;0.90;;;10.80;93.00;;;;;;6072522;23;20445;-85
2021/04/12 11:18:32;;;;;;;2.07;0.90;;;10.80;93.00;;;;;;6080869;23;20457;-85
2021/04/12 11:21:34;;;;;;;2.20;1.37;;;10.90;92.90;;;;;;6047150;23;20427;-84
2021/04/12 11:24:31;;;;;;;2.30;1.00;;;10.90;92.90;;;;;;6064386;23;20745;-85
2021/04/12 11:27:41;;;;;;;2.17;0.98;;;10.90;92.80;;;;;;6072800;23;20417;-85
2021/04/12 11:30:25;;;;;;;2.63;1.30;;;10.90;92.00;;;;;;6121667;23;20675;-86
2021/04/12 11:33:19;;;;;;;4.40;1.23;;;10.80;92.20;;;;;;6074841;23;20472;-86
2021/04/12 11:36:24;;;;;;;1.70;1.30;;;10.80;91.80;;;;;;6072477;23;20472;-86
2021/04/12 11:39:09;;;;;;;1.70;1.03;;;10.70;91.50;;;;;;6067023;23;20204;-86
2021/04/12 11:49:39;;;;;;;2.50;1.47;;;10.30;91.30;;;;;;5973431;23;20447;-86
2021/04/12 11:52:19;;;;;;;4.00;1.57;;;10.20;91.20;;;;;;5966260;24;20426;-86
2021/04/12 11:55:00;;;;;;;4.00;1.30;;;10.10;91.10;;;;;;5987256;23;20531;-85
2021/04/12 11:57:46;;;;;;;2.23;0.90;;;10.10;90.90;;;;;;5965121;24;20431;-85
2021/04/12 12:00:26;;;;;;;1.90;0.90;;;10.10;90.80;;;;;;5987260;23;20451;-85
2021/04/12 12:03:24;;;;;;;1.10;0.80;;;10.10;90.80;;;;;;5986321;23;20448;-85
2021/04/12 12:06:16;;;;;;;2.80;0.87;;;10.10;90.40;;;;;;6008310;23;20424;-85
2021/04/12 12:09:05;;;;;;;2.60;0.80;;;10.20;90.10;;;;;;5985335;23;20448;-85
2021/04/12 12:11:58;;;;;;;1.47;1.27;;;10.20;89.90;;;;;;5989887;23;20451;-86
2021/04/12 12:14:40;;;;;;;4.30;1.13;;;10.20;90.00;;;;;;5989562;23;20487;-86
2021/04/12 12:21:21;;;;;;;2.70;1.10;;;10.20;89.70;;;;;;6077749;23;20467;-86
2021/04/12 12:24:31;;;;;;;2.20;1.10;;;10.20;89.50;;;;;;6099286;23;20499;-86
2021/04/12 12:27:30;;;;;;;2.90;1.00;;;10.20;89.00;;;;;;6075567;23;20726;-84
2021/04/12 12:30:15;;;;;;;2.27;1.40;;;10.20;88.60;;;;;;6077928;23;20489;-84
2021/04/12 12:32:59;;;;;;;2.03;1.20;;;10.20;88.90;;;;;;6122498;23;20481;-84
2021/04/12 12:35:37;;;;;;;3.80;1.17;;;10.10;89.50;;;;;;6121781;23;20418;-83
2021/04/12 12:38:30;;;;;;;4.83;1.50;;;10.10;90.10;;;;;;6097234;23;20413;-84
2021/04/12 12:41:01;;;;;;;2.97;1.50;;;10.10;90.30;;;;;;6122630;23;20420;-84
2021/04/12 12:43:35;;;;;;;1.90;1.27;;;10.20;90.30;;;;;;6122125;23;20414;-84
2021/04/12 12:46:09;;;;;;;1.87;1.20;;;10.10;90.40;;;;;;6073594;23;20434;-84
2021/04/12 12:48:46;;;;;;;1.30;0.80;;;10.00;90.40;;;;;;6097511;23;20404;-84
2021/04/12 12:51:19;;;;;;;1.47;1.00;;;9.90;91.00;;;;;;6085087;23;20381;-85
2021/04/12 12:53:51;;;;;;;3.50;1.43;;;9.80;91.10;;;;;;6122883;23;20441;-85
2021/04/12 12:56:25;;;;;;;1.80;1.00;;;9.70;91.10;;;;;;6073642;23;20441;-86
2021/04/12 12:58:59;;;;;;;1.60;0.80;;;9.70;91.20;;;;;;6085203;23;20430;-85
2021/04/12 13:01:30;;;;;;;2.13;1.00;;;9.70;91.20;;;;;;6073679;23;20430;-86
2021/04/12 13:04:13;;;;;;;1.00;0.63;;;9.70;91.00;;;;;;6097764;23;20412;-85
2021/04/12 13:06:43;;;;;;;1.90;0.80;;;9.60;90.90;;;;;;6074719;23;20445;-86
2021/04/12 13:09:31;;;;;;;1.23;1.00;;;9.40;91.00;;;;;;6076267;23;20472;-86
2021/04/12 13:12:18;;;;;;;2.07;1.83;;;9.40;91.00;;;;;;6075152;23;20433;-86
2021/04/12 13:14:54;;;;;;;3.27;1.30;;;9.30;91.00;;;;;;6122382;23;20447;-85
2021/04/12 13:17:32;;;;;;;2.50;1.67;;;9.30;91.10;;;;;;6097930;23;20937;-86
2021/04/12 13:20:03;;;;;;;1.67;1.13;;;9.30;91.20;;;;;;6096775;23;20452;-85
2021/04/12 13:22:35;;;;;;;2.60;1.00;;;9.40;91.30;;;;;;6073595;23;20408;-86
2021/04/12 13:25:32;;;;;;;3.00;1.63;;;9.40;91.40;;;;;;6085948;23;20386;-86
2021/04/12 13:28:04;;;;;;;3.23;1.57;;;9.50;91.60;;;;;;6049690;23;20485;-86
2021/04/12 13:30:35;;;;;;;1.70;1.43;;;9.60;91.70;;;;;;6123547;23;20465;-86
2021/04/12 13:33:07;;;;;;;2.90;1.90;;;9.70;91.70;;;;;;6074548;23;20512;-86
2021/04/12 13:35:43;;;;;;;2.07;1.23;;;9.80;91.60;;;;;;6098418;23;20414;-86
2021/04/12 13:38:15;;;;;;;2.10;1.17;;;9.80;91.50;;;;;;6074638;23;20434;-86
2021/04/12 13:40:49;;;;;;;2.53;1.30;;;9.80;91.30;;;;;;6123424;23;20450;-86
2021/04/12 13:43:19;;;;;;;3.23;1.10;;;9.80;91.40;;;;;;6074172;23;20907;-86
2021/04/12 13:45:48;;;;;;;1.40;0.97;;;9.90;91.30;;;;;;6097792;23;20429;-86
2021/04/12 13:48:24;;;;;;;2.20;1.40;;;9.90;91.00;;;;;;6074304;23;20428;-86
2021/04/12 13:50:57;;;;;;;2.30;1.30;;;9.90;91.00;;;;;;6074397;23;20420;-86
2021/04/12 13:53:35;;;;;;;3.10;1.40;;;10.00;90.60;;;;;;6097582;23;20436;-85
2021/04/12 13:56:11;;;;;;;2.13;1.00;;;10.10;90.70;;;;;;6097328;23;20415;-86
2021/04/12 13:58:42;;;;;;;1.93;0.90;;;10.10;90.30;;;;;;6083163;23;20485;-84
2021/04/12 14:01:12;;;;;;;2.67;1.13;;;10.10;90.20;;;;;;6083309;23;20478;-84
2021/04/12 14:03:55;;;;;;;2.13;1.03;;;10.10;90.30;;;;;;6096792;23;20851;-84
2021/04/12 14:06:26;;;;;;;1.63;1.10;;;10.10;90.30;;;;;;6083195;23;20422;-83
2021/04/12 14:08:57;;;;;;;2.80;1.00;;;10.10;90.30;;;;;;6095963;23;20505;-84
2021/04/12 14:11:33;;;;;;;2.80;2.60;;;10.20;90.20;;;;;;6071577;23;20418;-83
2021/04/12 14:14:07;;;;;;;3.63;1.03;;;10.10;90.00;;;;;;6072064;23;20437;-83
2021/04/12 14:16:40;;;;;;;3.17;1.03;;;9.90;90.30;;;;;;6071926;23;20456;-83
2021/04/12 14:19:13;;;;;;;1.60;1.07;;;9.60;90.40;;;;;;6095496;23;20500;-83
2021/04/12 14:21:43;;;;;;;1.40;1.00;;;9.40;90.60;;;;;;6072029;23;20782;-83
2021/04/12 14:24:20;;;;;;;2.53;1.20;;;9.20;91.00;;;;;;6071543;23;20411;-83
2021/04/12 14:26:52;;;;;;;1.60;1.20;;;9.00;91.30;;;;;;6072001;23;20413;-83
2021/04/12 14:29:27;;;;;;;1.40;1.10;;;8.80;91.70;;;;;;6083585;23;20418;-83
2021/04/12 14:32:01;;;;;;;1.10;1.00;;;8.70;92.10;;;;;;6083383;23;20860;-83
2021/04/12 14:34:38;;;;;;;1.33;1.00;;;8.50;92.30;;;;;;6096073;23;20447;-83
2021/04/12 14:37:10;;;;;;;1.40;0.83;;;8.30;92.70;;;;;;6073363;23;20421;-83
2021/04/12 14:43:13;;;;;;;2.37;1.00;;;7.80;93.10;;;;;;5979420;24;20422;-83
2021/04/12 14:45:44;;;;;;;1.40;1.00;;;7.60;93.30;;;;;;5987249;24;20426;-83
2021/04/12 14:48:17;;;;;;;1.30;1.00;;;7.70;94.50;;;;;;6009332;23;20190;-83
2021/04/12 14:50:51;;;;;;;2.20;1.20;;;7.70;94.50;;;;;;5985613;24;20924;-84
2021/04/12 14:53:22;;;;;;;2.00;1.00;;;7.70;94.70;;;;;;5985385;23;20425;-84
2021/04/12 14:55:54;;;;;;;1.40;1.03;;;7.70;95.00;;;;;;5985253;23;20858;-84
2021/04/12 14:58:31;;;;;;;1.70;1.17;;;7.70;95.10;;;;;;6008451;23;20814;-84
2021/04/12 15:01:04;;;;;;;1.50;1.00;;;7.70;95.30;;;;;;5986368;24;20481;-84
2021/04/12 15:03:44;;;;;;;1.23;1.00;;;7.70;95.40;;;;;;5986602;23;20433;-84
2021/04/12 15:06:16;;;;;;;1.40;1.00;;;7.70;95.40;;;;;;5986225;23;20425;-84
2021/04/12 15:08:53;;;;;;;2.70;1.07;;;7.70;95.40;;;;;;5985799;23;20445;-84
2021/04/12 15:11:35;;;;;;;3.50;1.00;;;7.70;95.50;;;;;;6000480;23;20479;-84
2021/04/12 15:14:13;;;;;;;1.50;0.90;;;7.70;95.60;;;;;;6096389;23;20442;-84
2021/04/12 15:16:50;;;;;;;1.60;1.30;;;7.80;95.80;;;;;;6096674;23;20421;-84
2021/04/12 15:19:31;;;;;;;2.93;1.63;;;8.00;95.90;;;;;;6084525;23;20429;-84
2021/04/12 15:22:04;;;;;;;1.27;1.17;;;8.10;96.00;;;;;;6097259;23;20417;-84
2021/04/12 15:24:36;;;;;;;2.93;1.30;;;8.20;95.90;;;;;;6085676;23;20461;-84
2021/04/12 15:27:12;;;;;;;2.97;1.60;;;8.20;95.90;;;;;;6098958;23;20410;-84
2021/04/12 15:29:43;;;;;;;1.40;1.10;;;8.30;96.00;;;;;;6074852;23;20441;-84
2021/04/12 15:32:22;;;;;;;2.00;1.30;;;8.40;96.00;;;;;;6099117;23;20878;-84
2021/04/12 15:34:52;;;;;;;1.87;1.20;;;8.40;95.80;;;;;;6127312;23;20437;-84
2021/04/12 15:37:36;;;;;;;2.30;1.60;;;8.40;95.80;;;;;;6097554;23;20422;-84
2021/04/12 15:40:25;;;;;;;2.20;1.03;;;8.40;95.90;;;;;;6097807;23;20449;-84
2021/04/12 15:42:56;;;;;;;3.47;1.50;;;8.40;96.00;;;;;;6073032;23;20465;-84
2021/04/12 15:45:41;;;;;;;2.10;1.10;;;8.50;96.10;;;;;;6121373;23;20418;-84
2021/04/12 15:48:17;;;;;;;2.20;0.93;;;8.50;96.10;;;;;;6097821;23;20416;-84
2021/04/12 15:50:56;;;;;;;1.57;0.83;;;8.60;96.00;;;;;;6120570;23;20420;-84
2021/04/12 15:53:25;;;;;;;1.87;0.80;;;8.60;95.90;;;;;;6097159;23;20429;-83
2021/04/12 15:55:58;;;;;;;1.10;0.50;;;8.70;95.70;;;;;;6097049;23;20426;-83
2021/04/12 15:58:29;;;;;;;1.30;0.70;;;8.60;95.30;;;;;;6121377;23;20475;-84
2021/04/12 16:01:08;;;;;;;1.40;0.70;;;8.60;95.00;;;;;;6121163;23;20433;-84
2021/04/12 16:03:45;;;;;;;1.73;0.80;;;8.50;94.80;;;;;;6084220;23;20414;-84
2021/04/12 16:06:15;;;;;;;1.47;1.13;;;8.50;94.60;;;;;;6097532;23;20453;-84